createdAt,value
2023-03-29T00:02:14.341Z,49.50
2023-03-29T00:04:41.420Z,50.27
2023-03-29T00:07:08.867Z,49.23
2023-03-29T00:09:35.879Z,49.73
2023-03-29T00:12:03.570Z,49.97
2023-03-29T00:14:31.248Z,52.27
2023-03-29T00:16:59.190Z,57.73
2023-03-29T00:19:26.582Z,55.97
2023-03-29T00:21:53.528Z,52.77
2023-03-29T00:24:21.493Z,51.00
2023-03-29T00:26:48.844Z,49.50
2023-03-29T00:29:16.673Z,49.47
2023-03-29T00:31:53.626Z,49.33
2023-03-29T00:34:21.918Z,49.50
2023-03-29T00:36:50.924Z,50.27
2023-03-29T00:39:21.241Z,49.27
2023-03-29T00:41:50.219Z,49.60
2023-03-29T00:44:57.507Z,50.13
2023-03-29T00:47:41.665Z,51.63
2023-03-29T00:50:31.590Z,50.90
2023-03-29T00:53:33.828Z,49.13
2023-03-29T00:56:14.015Z,48.87
2023-03-29T00:58:57.213Z,49.13
2023-03-29T01:01:42.210Z,49.97
2023-03-29T01:04:19.364Z,49.50
2023-03-29T01:06:58.339Z,49.80
2023-03-29T01:09:29.847Z,50.33
2023-03-29T01:12:01.686Z,57.03
2023-03-29T01:14:42.070Z,57.00
2023-03-29T01:17:12.877Z,55.03
2023-03-29T01:19:50.606Z,50.07
2023-03-29T01:22:41.364Z,48.90
2023-03-29T01:25:26.638Z,48.27
2023-03-29T01:28:08.972Z,50.07
2023-03-29T01:31:08.540Z,48.77
2023-03-29T01:33:48.822Z,48.57
2023-03-29T01:36:27.112Z,48.50
2023-03-29T01:38:59.580Z,49.17
2023-03-29T01:42:21.713Z,48.97
2023-03-29T01:45:03.913Z,48.87
2023-03-29T01:48:12.909Z,49.00
2023-03-29T01:50:52.355Z,50.33
2023-03-29T01:53:52.604Z,49.27
2023-03-29T01:56:28.159Z,48.83
2023-03-29T01:59:07.715Z,48.93
2023-03-29T02:01:43.067Z,49.43
2023-03-29T02:04:13.760Z,50.00
2023-03-29T02:06:41.618Z,50.43
2023-03-29T02:09:09.182Z,48.57
2023-03-29T02:11:38.042Z,49.07
2023-03-29T02:14:05.522Z,49.13
2023-03-29T02:16:38.935Z,50.73
2023-03-29T02:19:07.868Z,51.50
2023-03-29T02:22:05.830Z,49.97
2023-03-29T02:24:36.506Z,50.07
2023-03-29T02:27:04.837Z,51.97
2023-03-29T02:29:31.904Z,51.23
2023-03-29T02:32:26.270Z,48.27
2023-03-29T02:35:16.772Z,48.50
2023-03-29T02:37:49.481Z,48.30
2023-03-29T02:40:17.773Z,49.53
2023-03-29T02:42:46.234Z,48.90
2023-03-29T02:45:15.978Z,48.90
2023-03-29T02:47:48.626Z,49.13
2023-03-29T02:50:16.002Z,49.77
2023-03-29T02:52:54.051Z,49.40
2023-03-29T02:55:25.150Z,48.97
2023-03-29T02:57:52.231Z,49.07
2023-03-29T03:00:20.144Z,53.83
2023-03-29T03:02:48.426Z,52.60
2023-03-29T03:05:15.904Z,48.93
2023-03-29T03:07:43.665Z,48.63
2023-03-29T03:10:11.127Z,48.27
2023-03-29T03:12:38.603Z,47.67
2023-03-29T03:15:06.842Z,48.90
2023-03-29T03:17:39.838Z,47.70
2023-03-29T03:20:13.082Z,49.67
2023-03-29T03:22:45.184Z,48.47
2023-03-29T03:25:12.153Z,48.50
2023-03-29T03:27:39.768Z,49.60
2023-03-29T03:30:07.833Z,48.33
2023-03-29T03:32:54.883Z,49.30
2023-03-29T03:35:40.502Z,48.60
2023-03-29T03:38:08.568Z,47.87
2023-03-29T03:40:35.513Z,48.40
2023-03-29T03:43:02.736Z,47.40
2023-03-29T03:45:30.075Z,47.57
2023-03-29T03:48:15.922Z,47.63
2023-03-29T03:51:06.215Z,47.73
2023-03-29T03:53:35.296Z,47.63
2023-03-29T03:56:14.272Z,48.60
2023-03-29T03:58:59.562Z,47.80
2023-03-29T04:01:28.276Z,48.87
2023-03-29T04:04:04.587Z,48.70
2023-03-29T04:06:32.609Z,48.73
2023-03-29T04:09:33.426Z,47.87
2023-03-29T04:12:39.641Z,48.13
2023-03-29T04:15:10.463Z,49.53
2023-03-29T04:17:39.949Z,49.50
2023-03-29T04:20:27.074Z,53.63
2023-03-29T04:22:55.662Z,54.47
2023-03-29T04:25:23.276Z,55.63
2023-03-29T04:27:56.629Z,54.00
2023-03-29T04:30:40.234Z,6.20
2023-03-29T04:33:13.679Z,75.73
2023-03-29T04:35:44.975Z,59.07
2023-03-29T04:38:16.794Z,66.60
2023-03-29T04:40:45.765Z,70.97
2023-03-29T04:43:25.219Z,66.57
2023-03-29T04:46:02.190Z,77.50
2023-03-29T04:48:47.999Z,57.40
2023-03-29T04:51:16.454Z,65.50
2023-03-29T04:53:44.338Z,55.73
2023-03-29T04:56:11.522Z,70.07
2023-03-29T04:58:56.940Z,74.50
2023-03-29T05:01:23.960Z,65.93
2023-03-29T05:03:57.325Z,58.73
2023-03-29T05:06:29.741Z,57.30
2023-03-29T05:08:56.901Z,52.90
2023-03-29T05:11:31.668Z,58.57
2023-03-29T05:14:03.106Z,54.87
2023-03-29T05:16:34.699Z,54.37
2023-03-29T05:19:01.944Z,54.17
2023-03-29T05:21:30.069Z,57.27
2023-03-29T05:24:00.903Z,59.27
2023-03-29T05:26:47.776Z,57.43
2023-03-29T05:29:15.303Z,51.57
2023-03-29T05:31:45.314Z,50.40
2023-03-29T05:34:12.283Z,50.00
2023-03-29T05:36:46.286Z,50.93
2023-03-29T05:39:15.152Z,52.90
2023-03-29T05:41:43.047Z,51.37
2023-03-29T05:44:27.347Z,51.87
2023-03-29T05:47:01.992Z,52.90
2023-03-29T05:49:29.061Z,54.33
2023-03-29T05:52:07.556Z,50.87
2023-03-29T05:54:35.824Z,63.27
2023-03-29T05:57:04.623Z,51.20
2023-03-29T05:59:32.416Z,49.10
2023-03-29T06:02:04.944Z,55.03
2023-03-29T06:04:34.368Z,55.43
2023-03-29T06:07:32.118Z,52.30
2023-03-29T06:10:25.291Z,53.47
2023-03-29T06:13:00.214Z,53.93
2023-03-29T06:15:28.203Z,58.43
2023-03-29T06:18:05.943Z,51.80
2023-03-29T06:20:34.446Z,50.73
2023-03-29T06:23:08.641Z,54.87
2023-03-29T06:25:35.617Z,53.13
2023-03-29T06:28:02.800Z,53.53
2023-03-29T06:30:30.237Z,55.90
2023-03-29T06:33:00.955Z,53.37
2023-03-29T06:35:51.015Z,49.73
2023-03-29T06:38:22.697Z,51.30
2023-03-29T06:41:24.686Z,50.80
2023-03-29T06:44:15.550Z,50.27
2023-03-29T06:46:55.822Z,50.97
2023-03-29T06:49:23.757Z,50.30
2023-03-29T06:52:04.072Z,50.37
2023-03-29T06:54:31.295Z,52.33
2023-03-29T06:57:04.649Z,49.43
2023-03-29T06:59:35.042Z,49.90
2023-03-29T07:02:31.786Z,48.83
2023-03-29T07:05:13.381Z,50.40
2023-03-29T07:08:22.659Z,50.23
2023-03-29T07:10:59.338Z,53.90
2023-03-29T07:13:46.206Z,58.13
2023-03-29T07:16:19.109Z,52.00
2023-03-29T07:19:09.416Z,51.93
2023-03-29T07:21:59.408Z,51.37
2023-03-29T07:24:37.793Z,52.93
2023-03-29T07:27:05.136Z,52.43
2023-03-29T07:29:33.577Z,50.83
2023-03-29T07:32:01.708Z,52.07
2023-03-29T07:34:43.973Z,59.37
2023-03-29T07:37:19.623Z,57.37
2023-03-29T07:39:47.432Z,56.30
2023-03-29T07:42:33.073Z,56.63
2023-03-29T07:45:00.212Z,86.00
2023-03-29T07:47:33.516Z,54.30
2023-03-29T07:50:02.215Z,118.07
2023-03-29T07:52:30.151Z,87.20
2023-03-29T07:54:58.055Z,111.53
2023-03-29T07:57:32.818Z,108.00
2023-03-29T08:00:00.593Z,107.10
2023-03-29T08:02:42.138Z,111.97
2023-03-29T08:05:12.663Z,111.30
2023-03-29T08:07:50.462Z,107.63
2023-03-29T08:10:29.662Z,51.17
2023-03-29T08:13:29.037Z,54.67
2023-03-29T08:16:28.089Z,52.00
2023-03-29T08:19:04.661Z,52.83
2023-03-29T08:21:50.518Z,59.90
2023-03-29T08:24:20.819Z,54.30
2023-03-29T08:26:52.553Z,51.80
2023-03-29T08:29:20.654Z,53.83
2023-03-29T08:31:47.759Z,55.23
2023-03-29T08:34:14.780Z,57.20
2023-03-29T08:36:59.383Z,53.23
2023-03-29T08:39:41.017Z,57.33
2023-03-29T08:42:44.961Z,54.43
2023-03-29T08:45:35.460Z,55.80
2023-03-29T08:48:31.587Z,51.77
2023-03-29T08:51:08.652Z,50.63
2023-03-29T08:53:50.718Z,56.13
2023-03-29T08:56:33.492Z,51.53
2023-03-29T08:59:06.559Z,51.20
2023-03-29T09:01:36.252Z,51.70
2023-03-29T09:04:38.988Z,52.43
2023-03-29T09:07:28.789Z,51.40
2023-03-29T09:09:57.104Z,51.43
2023-03-29T09:12:56.534Z,52.53
2023-03-29T09:15:31.275Z,54.20
2023-03-29T09:18:51.660Z,52.87
2023-03-29T09:21:41.468Z,50.70
2023-03-29T09:24:29.558Z,52.60
2023-03-29T09:27:14.422Z,50.50
2023-03-29T09:30:02.474Z,55.30
2023-03-29T09:33:27.004Z,50.47
2023-03-29T09:36:25.295Z,49.60
2023-03-29T09:38:55.437Z,50.43
2023-03-29T09:41:45.002Z,50.63
2023-03-29T09:44:30.248Z,51.20
2023-03-29T09:47:21.205Z,51.17
2023-03-29T09:49:55.424Z,51.23
2023-03-29T09:52:22.823Z,55.53
2023-03-29T09:55:12.428Z,50.60
2023-03-29T09:57:52.556Z,50.70
2023-03-29T10:00:20.637Z,53.23
2023-03-29T10:02:57.167Z,52.03
2023-03-29T10:05:37.166Z,51.10
2023-03-29T10:08:23.039Z,52.30
2023-03-29T10:10:51.510Z,51.73
2023-03-29T10:13:28.411Z,53.70
2023-03-29T10:16:09.197Z,53.13
2023-03-29T10:18:42.518Z,52.47
2023-03-29T10:21:17.352Z,53.30
2023-03-29T10:23:44.472Z,52.43
2023-03-29T10:26:21.352Z,53.23
2023-03-29T10:28:51.435Z,53.10
2023-03-29T10:31:20.599Z,53.83
2023-03-29T10:33:56.668Z,53.27
2023-03-29T10:36:26.850Z,52.73
2023-03-29T10:38:57.775Z,54.10
2023-03-29T10:41:27.268Z,58.57
2023-03-29T10:43:55.030Z,52.70
2023-03-29T10:46:28.758Z,54.47
2023-03-29T10:49:10.141Z,53.60
2023-03-29T10:51:37.515Z,57.90
2023-03-29T10:54:05.500Z,60.90
2023-03-29T10:56:56.072Z,54.63
2023-03-29T10:59:57.361Z,52.77
2023-03-29T11:02:46.946Z,56.17
2023-03-29T11:05:39.454Z,52.83
2023-03-29T11:08:37.660Z,55.37
2023-03-29T11:12:01.069Z,54.50
2023-03-29T11:15:24.375Z,54.47
2023-03-29T11:18:16.127Z,53.80
2023-03-29T11:20:56.344Z,61.30
2023-03-29T11:23:38.234Z,59.00
2023-03-29T11:26:14.032Z,54.87
2023-03-29T11:28:59.861Z,57.20
2023-03-29T11:31:32.676Z,58.73
2023-03-29T11:34:32.576Z,80.40
2023-03-29T11:37:26.595Z,46.27
2023-03-29T11:40:39.230Z,72.83
2023-03-29T11:43:39.107Z,4.37
2023-03-29T11:46:17.001Z,46.77
2023-03-29T11:49:10.208Z,44.73
2023-03-29T11:52:08.707Z,46.20
2023-03-29T11:54:42.414Z,70.07
2023-03-29T11:57:36.398Z,42.07
2023-03-29T12:00:20.561Z,40.77
2023-03-29T12:03:15.389Z,47.33
2023-03-29T12:05:50.004Z,44.33
2023-03-29T12:08:25.588Z,53.93
2023-03-29T12:11:25.604Z,45.70
2023-03-29T12:14:17.133Z,32.57
2023-03-29T12:17:05.742Z,38.03
2023-03-29T12:19:50.391Z,46.37
2023-03-29T12:22:17.398Z,49.87
2023-03-29T12:24:49.065Z,35.37
2023-03-29T12:27:22.844Z,48.00
2023-03-29T12:30:14.687Z,49.63
2023-03-29T12:33:03.234Z,3.70
2023-03-29T12:36:13.411Z,3.63
2023-03-29T12:38:53.399Z,3.27
2023-03-29T12:41:53.439Z,3.67
2023-03-29T12:45:00.762Z,3.40
2023-03-29T12:47:42.393Z,4.77
2023-03-29T12:50:28.277Z,4.13
2023-03-29T12:53:33.001Z,4.07
2023-03-29T12:56:03.123Z,2.70
2023-03-29T12:58:39.431Z,5.47
2023-03-29T13:01:08.045Z,3.35
2023-03-29T13:04:18.445Z,2.83
2023-03-29T13:07:03.032Z,3.20
2023-03-29T13:09:48.210Z,3.50
2023-03-29T13:12:40.922Z,4.00
2023-03-29T13:15:34.533Z,3.67
2023-03-29T13:18:23.772Z,2.67
2023-03-29T13:21:19.198Z,2.70
2023-03-29T13:24:22.245Z,2.40
2023-03-29T13:27:06.396Z,2.53
2023-03-29T13:30:06.460Z,2.65
2023-03-29T13:33:20.002Z,3.03
2023-03-29T13:36:08.978Z,2.57
2023-03-29T13:38:51.162Z,2.10
2023-03-29T13:41:38.737Z,2.28
2023-03-29T13:44:30.182Z,2.78
2023-03-29T13:47:29.337Z,2.60
2023-03-29T13:50:01.043Z,3.00
2023-03-29T13:52:34.655Z,2.60
2023-03-29T13:55:19.753Z,2.60
2023-03-29T13:58:43.848Z,2.10
2023-03-29T14:01:57.313Z,2.33
2023-03-29T14:04:46.089Z,2.20
2023-03-29T14:07:15.661Z,2.57
2023-03-29T14:09:49.734Z,2.77
2023-03-29T14:12:17.709Z,2.40
2023-03-29T14:14:58.166Z,3.03
2023-03-29T14:17:27.142Z,2.67
2023-03-29T14:19:59.206Z,2.73
2023-03-29T14:22:33.108Z,2.87
2023-03-29T14:25:11.665Z,3.13
2023-03-29T14:27:38.648Z,2.80
2023-03-29T14:30:28.456Z,2.57
2023-03-29T14:32:56.713Z,3.00
2023-03-29T14:35:33.023Z,2.43
2023-03-29T14:38:01.892Z,2.80
2023-03-29T14:40:31.508Z,2.70
2023-03-29T14:43:01.604Z,3.20
2023-03-29T14:45:29.074Z,3.40
2023-03-29T14:47:56.622Z,2.90
2023-03-29T14:50:29.625Z,3.60
2023-03-29T14:53:01.429Z,8.43
2023-03-29T14:55:28.785Z,4.60
2023-03-29T14:57:56.466Z,5.00
2023-03-29T15:00:39.949Z,6.73
2023-03-29T15:03:14.758Z,6.20
2023-03-29T15:06:03.086Z,7.10
2023-03-29T15:08:30.770Z,9.90
2023-03-29T15:10:58.799Z,6.87
2023-03-29T15:13:26.357Z,3.60
2023-03-29T15:15:59.170Z,3.85
2023-03-29T15:18:41.427Z,3.40
2023-03-29T15:21:10.673Z,6.78
2023-03-29T15:23:46.615Z,5.57
2023-03-29T15:26:24.771Z,5.90
2023-03-29T15:29:00.455Z,4.70
2023-03-29T15:31:35.628Z,6.07
2023-03-29T15:34:06.982Z,5.70
2023-03-29T15:36:42.507Z,5.30
2023-03-29T15:39:16.085Z,4.77
2023-03-29T15:41:45.921Z,5.32
2023-03-29T15:44:19.722Z,5.47
2023-03-29T15:46:46.734Z,5.97
2023-03-29T15:49:14.560Z,4.33
2023-03-29T15:51:41.766Z,3.67
2023-03-29T15:54:09.243Z,5.07
2023-03-29T15:56:48.468Z,4.90
2023-03-29T15:59:18.022Z,3.83
2023-03-29T16:01:46.997Z,3.83
2023-03-29T16:04:17.848Z,3.85
2023-03-29T16:06:52.682Z,5.40
2023-03-29T16:09:21.649Z,5.17
2023-03-29T16:11:49.643Z,4.00
2023-03-29T16:14:27.313Z,7.10
2023-03-29T16:16:55.637Z,5.30
2023-03-29T16:19:24.242Z,4.55
2023-03-29T16:21:52.915Z,3.70
2023-03-29T16:24:30.009Z,5.47
2023-03-29T16:26:57.493Z,3.88
2023-03-29T16:29:25.596Z,3.50
2023-03-29T16:31:53.546Z,3.47
2023-03-29T16:34:22.674Z,3.67
2023-03-29T16:36:50.711Z,4.37
2023-03-29T16:39:18.395Z,5.00
2023-03-29T16:41:48.366Z,5.03
2023-03-29T16:44:23.845Z,5.20
2023-03-29T16:46:53.917Z,4.60
2023-03-29T16:49:21.531Z,5.80
2023-03-29T16:51:48.649Z,6.07
2023-03-29T16:54:19.686Z,6.23
2023-03-29T16:56:46.959Z,6.10
2023-03-29T16:59:14.230Z,4.87
2023-03-29T17:01:41.606Z,6.00
2023-03-29T17:04:09.187Z,6.20
2023-03-29T17:06:36.467Z,6.00
2023-03-29T17:09:05.030Z,6.63
2023-03-29T17:11:32.629Z,6.00
2023-03-29T17:14:00.110Z,6.03
2023-03-29T17:16:28.973Z,47.67
2023-03-29T17:19:00.409Z,65.43
2023-03-29T17:21:29.170Z,59.87
2023-03-29T17:23:56.333Z,58.90
2023-03-29T17:26:23.448Z,59.37
2023-03-29T17:28:50.470Z,63.57
2023-03-29T17:31:19.342Z,66.70
2023-03-29T17:33:47.269Z,65.40
2023-03-29T17:36:14.281Z,62.10
2023-03-29T17:38:42.774Z,65.53
2023-03-29T17:41:09.965Z,61.70
2023-03-29T17:43:36.913Z,62.27
2023-03-29T17:46:04.454Z,62.87
2023-03-29T17:48:32.915Z,65.13
2023-03-29T17:51:00.270Z,61.30
2023-03-29T17:53:27.407Z,59.83
2023-03-29T17:55:54.309Z,58.33
2023-03-29T17:58:21.384Z,60.57
2023-03-29T18:00:48.594Z,62.77
2023-03-29T18:03:15.655Z,64.13
2023-03-29T18:05:42.593Z,64.63
2023-03-29T18:08:09.576Z,66.10
2023-03-29T18:10:36.867Z,65.90
2023-03-29T18:13:03.901Z,64.07
2023-03-29T18:15:30.926Z,59.03
2023-03-29T18:17:57.881Z,65.30
2023-03-29T18:20:24.843Z,59.13
2023-03-29T18:22:51.779Z,59.17
2023-03-29T18:25:20.059Z,57.90
2023-03-29T18:27:47.067Z,60.10
2023-03-29T18:30:16.666Z,58.50
2023-03-29T18:32:43.799Z,68.03
2023-03-29T18:35:11.622Z,56.60
2023-03-29T18:37:38.704Z,56.23
2023-03-29T18:40:10.221Z,57.90
2023-03-29T18:42:37.633Z,59.87
2023-03-29T18:45:05.529Z,58.97
2023-03-29T18:47:33.070Z,56.93
2023-03-29T18:50:00.326Z,56.03
2023-03-29T18:52:27.845Z,56.27
2023-03-29T18:54:54.829Z,57.07
2023-03-29T18:57:21.929Z,57.30
2023-03-29T18:59:48.943Z,57.07
2023-03-29T19:02:16.083Z,56.23
2023-03-29T19:04:43.291Z,57.17
2023-03-29T19:07:10.591Z,56.43
2023-03-29T19:09:37.607Z,55.83
2023-03-29T19:12:05.288Z,57.33
2023-03-29T19:14:32.229Z,56.70
2023-03-29T19:16:59.136Z,57.70
2023-03-29T19:19:26.438Z,57.70
2023-03-29T19:21:53.470Z,57.30
2023-03-29T19:24:20.847Z,60.53
2023-03-29T19:26:49.972Z,60.83
2023-03-29T19:29:16.993Z,61.13
2023-03-29T19:31:44.007Z,61.73
2023-03-29T19:34:11.237Z,60.07
2023-03-29T19:36:38.417Z,59.77
2023-03-29T19:39:06.014Z,60.17
2023-03-29T19:41:33.146Z,59.43
2023-03-29T19:44:00.128Z,60.33
2023-03-29T19:46:28.834Z,60.07
2023-03-29T19:48:56.241Z,59.00
2023-03-29T19:51:26.759Z,59.30
2023-03-29T19:53:55.204Z,62.17
2023-03-29T19:56:26.862Z,58.83
2023-03-29T19:58:54.043Z,59.03
2023-03-29T20:01:21.745Z,59.90
2023-03-29T20:03:49.806Z,59.90
2023-03-29T20:06:18.052Z,59.73
2023-03-29T20:08:45.752Z,60.37
2023-03-29T20:11:14.102Z,72.00
2023-03-29T20:13:43.094Z,76.73
2023-03-29T20:16:13.886Z,65.20
2023-03-29T20:18:41.302Z,63.73
2023-03-29T20:21:09.329Z,63.70
2023-03-29T20:23:36.649Z,63.67
2023-03-29T20:26:03.699Z,62.53
2023-03-29T20:28:31.449Z,63.37
2023-03-29T20:31:04.958Z,63.00
2023-03-29T20:33:33.470Z,61.07
2023-03-29T20:36:00.547Z,64.10
2023-03-29T20:38:27.689Z,63.37
2023-03-29T20:40:55.373Z,66.50
2023-03-29T20:43:22.576Z,61.10
2023-03-29T20:45:53.418Z,61.30
2023-03-29T20:48:23.439Z,60.83
2023-03-29T20:50:51.624Z,61.53
2023-03-29T20:53:20.430Z,61.37
2023-03-29T20:55:47.872Z,61.40
2023-03-29T20:58:15.755Z,61.13
2023-03-29T21:00:43.573Z,62.17
2023-03-29T21:03:10.857Z,66.67
2023-03-29T21:05:38.728Z,71.73
2023-03-29T21:08:06.090Z,70.47
2023-03-29T21:10:33.316Z,74.17
2023-03-29T21:13:00.692Z,78.07
2023-03-29T21:15:30.535Z,69.03
2023-03-29T21:17:58.130Z,69.57
2023-03-29T21:20:25.431Z,68.30
2023-03-29T21:22:52.383Z,70.13
2023-03-29T21:25:19.798Z,73.03
2023-03-29T21:27:46.890Z,68.53
2023-03-29T21:30:14.175Z,66.03
2023-03-29T21:32:41.601Z,66.97
2023-03-29T21:35:09.667Z,67.43
2023-03-29T21:37:36.692Z,66.23
2023-03-29T21:40:05.932Z,67.63
2023-03-29T21:42:36.512Z,67.03
2023-03-29T21:45:04.581Z,66.33
2023-03-29T21:47:31.626Z,65.07
2023-03-29T21:49:58.692Z,65.17
2023-03-29T21:52:26.001Z,66.20
2023-03-29T21:54:52.944Z,65.67
2023-03-29T21:57:19.944Z,68.00
2023-03-29T21:59:46.905Z,65.37
2023-03-29T22:02:13.928Z,67.93
2023-03-29T22:04:41.346Z,67.07
2023-03-29T22:07:10.618Z,66.33
2023-03-29T22:09:37.736Z,68.13
2023-03-29T22:12:05.328Z,66.10
2023-03-29T22:14:36.426Z,66.63
2023-03-29T22:17:06.969Z,67.23
2023-03-29T22:19:41.733Z,64.93
2023-03-29T22:22:13.350Z,64.87
2023-03-29T22:24:41.909Z,64.10
2023-03-29T22:27:09.292Z,64.17
2023-03-29T22:29:36.237Z,59.67
2023-03-29T22:32:03.579Z,60.30
2023-03-29T22:34:30.687Z,60.37
2023-03-29T22:36:57.660Z,60.43
2023-03-29T22:39:24.624Z,59.10
2023-03-29T22:41:51.574Z,57.50
2023-03-29T22:44:18.493Z,58.37
2023-03-29T22:46:45.566Z,60.50
2023-03-29T22:49:13.250Z,59.40
2023-03-29T22:51:40.334Z,66.77
2023-03-29T22:54:07.288Z,71.50
2023-03-29T22:56:34.237Z,91.93
2023-03-29T22:59:01.282Z,96.73
2023-03-29T23:01:28.246Z,107.00
2023-03-29T23:03:55.449Z,111.20
2023-03-29T23:06:22.407Z,70.13
2023-03-29T23:08:49.316Z,74.30
2023-03-29T23:11:16.317Z,62.20
2023-03-29T23:13:43.360Z,61.67
2023-03-29T23:16:10.509Z,60.67
2023-03-29T23:18:37.955Z,60.27
2023-03-29T23:21:06.126Z,59.63
2023-03-29T23:23:33.687Z,64.43
2023-03-29T23:26:01.949Z,59.83
2023-03-29T23:28:30.694Z,63.37
2023-03-29T23:31:03.280Z,64.03
2023-03-29T23:33:35.318Z,65.70
2023-03-29T23:36:06.196Z,73.77
2023-03-29T23:38:36.111Z,61.60
2023-03-29T23:41:06.757Z,64.67
2023-03-29T23:43:37.178Z,69.27
2023-03-29T23:46:07.910Z,75.80
2023-03-29T23:48:34.989Z,83.83
2023-03-29T23:51:03.278Z,86.70
2023-03-29T23:53:31.500Z,74.33
2023-03-29T23:56:01.264Z,70.83
2023-03-29T23:58:30.854Z,71.73
